sensor_id;sensor_type;location;lat;lon;timestamp;P1;durP1;ratioP1;P2;durP2;ratioP2
11054;SDS011;5580;50.106;8.702;2023-12-29T00:01:21;5.93;;;4.60;;
11054;SDS011;5580;50.106;8.702;2023-12-29T00:03:47;7.17;;;4.53;;
11054;SDS011;5580;50.106;8.702;2023-12-29T00:06:12;6.70;;;4.60;;
11054;SDS011;5580;50.106;8.702;2023-12-29T00:08:38;5.30;;;4.23;;
11054;SDS011;5580;50.106;8.702;2023-12-29T00:11:03;5.70;;;4.40;;
11054;SDS011;5580;50.106;8.702;2023-12-29T00:13:29;6.60;;;4.77;;
11054;SDS011;5580;50.106;8.702;2023-12-29T00:15:55;7.43;;;4.60;;
11054;SDS011;5580;50.106;8.702;2023-12-29T00:18:21;5.60;;;4.37;;
11054;SDS011;5580;50.106;8.702;2023-12-29T00:20:47;8.00;;;4.77;;
11054;SDS011;5580;50.106;8.702;2023-12-29T00:23:13;6.93;;;4.50;;
11054;SDS011;5580;50.106;8.702;2023-12-29T00:25:38;6.93;;;4.40;;
11054;SDS011;5580;50.106;8.702;2023-12-29T00:28:05;5.70;;;4.40;;
11054;SDS011;5580;50.106;8.702;2023-12-29T00:30:31;7.20;;;4.17;;
11054;SDS011;5580;50.106;8.702;2023-12-29T00:32:56;6.80;;;4.50;;
11054;SDS011;5580;50.106;8.702;2023-12-29T00:35:22;6.83;;;4.23;;
11054;SDS011;5580;50.106;8.702;2023-12-29T00:37:49;5.50;;;4.40;;
11054;SDS011;5580;50.106;8.702;2023-12-29T00:40:15;6.40;;;4.37;;
11054;SDS011;5580;50.106;8.702;2023-12-29T00:42:40;4.20;;;3.80;;
11054;SDS011;5580;50.106;8.702;2023-12-29T00:45:06;6.07;;;4.07;;
11054;SDS011;5580;50.106;8.702;2023-12-29T00:47:33;5.07;;;4.00;;
11054;SDS011;5580;50.106;8.702;2023-12-29T00:49:58;6.57;;;4.07;;
11054;SDS011;5580;50.106;8.702;2023-12-29T00:52:25;5.77;;;4.13;;
11054;SDS011;5580;50.106;8.702;2023-12-29T00:54:50;6.20;;;4.00;;
11054;SDS011;5580;50.106;8.702;2023-12-29T00:57:16;7.97;;;4.20;;
11054;SDS011;5580;50.106;8.702;2023-12-29T00:59:42;4.60;;;4.00;;
11054;SDS011;5580;50.106;8.702;2023-12-29T01:02:09;5.53;;;3.87;;
11054;SDS011;5580;50.106;8.702;2023-12-29T01:04:36;6.20;;;4.00;;
11054;SDS011;5580;50.106;8.702;2023-12-29T01:07:03;4.43;;;3.80;;
11054;SDS011;5580;50.106;8.702;2023-12-29T01:09:29;5.23;;;4.13;;
11054;SDS011;5580;50.106;8.702;2023-12-29T01:11:54;4.70;;;4.10;;
11054;SDS011;5580;50.106;8.702;2023-12-29T01:14:20;5.53;;;3.90;;
11054;SDS011;5580;50.106;8.702;2023-12-29T01:16:45;5.03;;;4.20;;
11054;SDS011;5580;50.106;8.702;2023-12-29T01:19:11;6.17;;;3.97;;
11054;SDS011;5580;50.106;8.702;2023-12-29T01:21:39;5.00;;;3.90;;
11054;SDS011;5580;50.106;8.702;2023-12-29T01:24:05;5.20;;;4.10;;
11054;SDS011;5580;50.106;8.702;2023-12-29T01:26:36;6.03;;;4.10;;
11054;SDS011;5580;50.106;8.702;2023-12-29T01:29:03;6.20;;;4.23;;
11054;SDS011;5580;50.106;8.702;2023-12-29T01:31:31;5.93;;;4.10;;
11054;SDS011;5580;50.106;8.702;2023-12-29T01:33:57;4.53;;;4.10;;
11054;SDS011;5580;50.106;8.702;2023-12-29T01:36:23;4.60;;;4.03;;
11054;SDS011;5580;50.106;8.702;2023-12-29T01:38:49;6.40;;;4.10;;
11054;SDS011;5580;50.106;8.702;2023-12-29T01:41:14;5.17;;;3.90;;
11054;SDS011;5580;50.106;8.702;2023-12-29T01:46:21;6.00;;;4.00;;
11054;SDS011;5580;50.106;8.702;2023-12-29T01:48:47;5.63;;;3.87;;
11054;SDS011;5580;50.106;8.702;2023-12-29T01:51:14;6.17;;;4.07;;
11054;SDS011;5580;50.106;8.702;2023-12-29T01:53:40;4.50;;;4.00;;
11054;SDS011;5580;50.106;8.702;2023-12-29T01:56:06;8.20;;;4.07;;
11054;SDS011;5580;50.106;8.702;2023-12-29T01:58:32;4.47;;;3.80;;
11054;SDS011;5580;50.106;8.702;2023-12-29T02:00:58;7.43;;;3.70;;
11054;SDS011;5580;50.106;8.702;2023-12-29T02:03:26;6.03;;;4.10;;
11054;SDS011;5580;50.106;8.702;2023-12-29T02:05:52;5.53;;;3.83;;
11054;SDS011;5580;50.106;8.702;2023-12-29T02:08:20;7.83;;;4.13;;
11054;SDS011;5580;50.106;8.702;2023-12-29T02:10:47;5.60;;;3.93;;
11054;SDS011;5580;50.106;8.702;2023-12-29T02:13:13;7.87;;;3.77;;
11054;SDS011;5580;50.106;8.702;2023-12-29T02:15:39;6.80;;;4.00;;
11054;SDS011;5580;50.106;8.702;2023-12-29T02:18:06;5.40;;;3.53;;
11054;SDS011;5580;50.106;8.702;2023-12-29T02:20:34;6.60;;;3.57;;
11054;SDS011;5580;50.106;8.702;2023-12-29T02:23:00;5.23;;;3.73;;
11054;SDS011;5580;50.106;8.702;2023-12-29T02:25:27;6.47;;;4.03;;
11054;SDS011;5580;50.106;8.702;2023-12-29T02:27:55;5.03;;;3.70;;
11054;SDS011;5580;50.106;8.702;2023-12-29T02:33:14;5.97;;;3.60;;
11054;SDS011;5580;50.106;8.702;2023-12-29T02:35:44;5.87;;;3.97;;
11054;SDS011;5580;50.106;8.702;2023-12-29T02:38:11;7.07;;;4.00;;
11054;SDS011;5580;50.106;8.702;2023-12-29T02:40:37;5.37;;;3.70;;
11054;SDS011;5580;50.106;8.702;2023-12-29T02:43:03;6.17;;;3.60;;
11054;SDS011;5580;50.106;8.702;2023-12-29T02:45:29;5.73;;;3.90;;
11054;SDS011;5580;50.106;8.702;2023-12-29T02:47:54;5.03;;;3.87;;
11054;SDS011;5580;50.106;8.702;2023-12-29T02:50:20;6.47;;;3.70;;
11054;SDS011;5580;50.106;8.702;2023-12-29T02:52:46;5.27;;;3.93;;
11054;SDS011;5580;50.106;8.702;2023-12-29T02:55:11;5.17;;;3.73;;
11054;SDS011;5580;50.106;8.702;2023-12-29T02:57:37;8.83;;;3.93;;
11054;SDS011;5580;50.106;8.702;2023-12-29T03:00:04;4.90;;;3.70;;
11054;SDS011;5580;50.106;8.702;2023-12-29T03:02:30;4.67;;;3.50;;
11054;SDS011;5580;50.106;8.702;2023-12-29T03:04:56;4.20;;;3.60;;
11054;SDS011;5580;50.106;8.702;2023-12-29T03:07:22;4.83;;;3.53;;
11054;SDS011;5580;50.106;8.702;2023-12-29T03:09:47;6.17;;;3.73;;
11054;SDS011;5580;50.106;8.702;2023-12-29T03:12:13;8.03;;;4.00;;
11054;SDS011;5580;50.106;8.702;2023-12-29T03:14:38;3.83;;;3.40;;
11054;SDS011;5580;50.106;8.702;2023-12-29T03:17:04;4.77;;;3.80;;
11054;SDS011;5580;50.106;8.702;2023-12-29T03:19:29;6.83;;;3.90;;
11054;SDS011;5580;50.106;8.702;2023-12-29T03:21:55;7.37;;;4.10;;
11054;SDS011;5580;50.106;8.702;2023-12-29T03:24:21;4.27;;;3.67;;
11054;SDS011;5580;50.106;8.702;2023-12-29T03:26:47;7.33;;;3.90;;
11054;SDS011;5580;50.106;8.702;2023-12-29T03:29:12;5.30;;;3.80;;
11054;SDS011;5580;50.106;8.702;2023-12-29T03:31:38;5.30;;;3.70;;
11054;SDS011;5580;50.106;8.702;2023-12-29T03:34:04;6.20;;;3.83;;
11054;SDS011;5580;50.106;8.702;2023-12-29T03:36:30;5.33;;;3.97;;
11054;SDS011;5580;50.106;8.702;2023-12-29T03:38:56;5.93;;;3.80;;
11054;SDS011;5580;50.106;8.702;2023-12-29T03:41:21;5.53;;;3.73;;
11054;SDS011;5580;50.106;8.702;2023-12-29T03:43:47;5.87;;;3.90;;
11054;SDS011;5580;50.106;8.702;2023-12-29T03:46:19;6.30;;;3.77;;
11054;SDS011;5580;50.106;8.702;2023-12-29T03:48:45;6.57;;;3.80;;
11054;SDS011;5580;50.106;8.702;2023-12-29T03:51:11;6.27;;;3.83;;
11054;SDS011;5580;50.106;8.702;2023-12-29T03:53:37;6.27;;;3.60;;
11054;SDS011;5580;50.106;8.702;2023-12-29T03:56:09;6.53;;;3.80;;
11054;SDS011;5580;50.106;8.702;2023-12-29T03:58:42;7.83;;;3.70;;
11054;SDS011;5580;50.106;8.702;2023-12-29T04:01:09;5.10;;;3.60;;
11054;SDS011;5580;50.106;8.702;2023-12-29T04:03:36;4.80;;;3.70;;
11054;SDS011;5580;50.106;8.702;2023-12-29T04:06:02;4.30;;;3.33;;
11054;SDS011;5580;50.106;8.702;2023-12-29T04:08:27;5.67;;;3.90;;
11054;SDS011;5580;50.106;8.702;2023-12-29T04:10:53;6.53;;;3.90;;
11054;SDS011;5580;50.106;8.702;2023-12-29T04:13:18;5.30;;;3.60;;
11054;SDS011;5580;50.106;8.702;2023-12-29T04:15:44;6.30;;;3.80;;
11054;SDS011;5580;50.106;8.702;2023-12-29T04:18:10;4.30;;;3.57;;
11054;SDS011;5580;50.106;8.702;2023-12-29T04:20:35;5.70;;;3.70;;
11054;SDS011;5580;50.106;8.702;2023-12-29T04:23:01;6.57;;;3.77;;
11054;SDS011;5580;50.106;8.702;2023-12-29T04:25:26;7.10;;;3.77;;
11054;SDS011;5580;50.106;8.702;2023-12-29T04:27:52;6.10;;;3.87;;
11054;SDS011;5580;50.106;8.702;2023-12-29T04:30:17;6.17;;;3.87;;
11054;SDS011;5580;50.106;8.702;2023-12-29T04:32:43;4.30;;;3.40;;
11054;SDS011;5580;50.106;8.702;2023-12-29T04:35:08;6.67;;;3.60;;
11054;SDS011;5580;50.106;8.702;2023-12-29T04:37:37;4.60;;;3.47;;
11054;SDS011;5580;50.106;8.702;2023-12-29T04:40:03;6.00;;;3.43;;
11054;SDS011;5580;50.106;8.702;2023-12-29T04:42:29;6.67;;;4.10;;
11054;SDS011;5580;50.106;8.702;2023-12-29T04:44:55;4.73;;;3.70;;
11054;SDS011;5580;50.106;8.702;2023-12-29T04:47:21;5.80;;;3.70;;
11054;SDS011;5580;50.106;8.702;2023-12-29T04:49:46;7.13;;;3.60;;
11054;SDS011;5580;50.106;8.702;2023-12-29T04:52:12;6.63;;;3.90;;
11054;SDS011;5580;50.106;8.702;2023-12-29T04:54:37;4.57;;;3.70;;
11054;SDS011;5580;50.106;8.702;2023-12-29T04:57:03;5.17;;;3.57;;
11054;SDS011;5580;50.106;8.702;2023-12-29T04:59:28;5.80;;;3.70;;
11054;SDS011;5580;50.106;8.702;2023-12-29T05:01:54;7.77;;;3.73;;
11054;SDS011;5580;50.106;8.702;2023-12-29T05:04:19;5.77;;;3.50;;
11054;SDS011;5580;50.106;8.702;2023-12-29T05:06:45;5.80;;;4.00;;
11054;SDS011;5580;50.106;8.702;2023-12-29T05:09:11;4.80;;;3.63;;
11054;SDS011;5580;50.106;8.702;2023-12-29T05:11:36;4.27;;;3.60;;
11054;SDS011;5580;50.106;8.702;2023-12-29T05:14:02;4.47;;;3.57;;
11054;SDS011;5580;50.106;8.702;2023-12-29T05:16:27;4.57;;;3.30;;
11054;SDS011;5580;50.106;8.702;2023-12-29T05:18:53;4.23;;;3.50;;
11054;SDS011;5580;50.106;8.702;2023-12-29T05:21:18;5.90;;;3.63;;
11054;SDS011;5580;50.106;8.702;2023-12-29T05:23:44;4.77;;;3.30;;
11054;SDS011;5580;50.106;8.702;2023-12-29T05:26:10;5.67;;;3.47;;
11054;SDS011;5580;50.106;8.702;2023-12-29T05:28:36;5.43;;;3.50;;
11054;SDS011;5580;50.106;8.702;2023-12-29T05:31:02;5.67;;;3.47;;
11054;SDS011;5580;50.106;8.702;2023-12-29T05:33:30;7.37;;;3.93;;
11054;SDS011;5580;50.106;8.702;2023-12-29T05:35:56;4.40;;;3.43;;
11054;SDS011;5580;50.106;8.702;2023-12-29T05:38:22;5.20;;;3.70;;
11054;SDS011;5580;50.106;8.702;2023-12-29T05:40:48;4.87;;;3.57;;
11054;SDS011;5580;50.106;8.702;2023-12-29T05:43:14;4.97;;;3.57;;
11054;SDS011;5580;50.106;8.702;2023-12-29T05:45:40;7.43;;;3.43;;
11054;SDS011;5580;50.106;8.702;2023-12-29T05:48:06;6.57;;;3.70;;
11054;SDS011;5580;50.106;8.702;2023-12-29T05:50:32;3.87;;;3.27;;
11054;SDS011;5580;50.106;8.702;2023-12-29T05:52:58;7.27;;;3.80;;
11054;SDS011;5580;50.106;8.702;2023-12-29T05:55:23;4.77;;;3.53;;
11054;SDS011;5580;50.106;8.702;2023-12-29T05:57:49;4.70;;;3.60;;
11054;SDS011;5580;50.106;8.702;2023-12-29T06:00:14;6.13;;;3.80;;
11054;SDS011;5580;50.106;8.702;2023-12-29T06:02:41;5.83;;;3.63;;
11054;SDS011;5580;50.106;8.702;2023-12-29T06:05:07;3.90;;;3.37;;
11054;SDS011;5580;50.106;8.702;2023-12-29T06:07:35;5.57;;;3.80;;
11054;SDS011;5580;50.106;8.702;2023-12-29T06:10:00;6.80;;;3.50;;
11054;SDS011;5580;50.106;8.702;2023-12-29T06:12:26;6.87;;;3.60;;
11054;SDS011;5580;50.106;8.702;2023-12-29T06:14:52;5.40;;;3.40;;
11054;SDS011;5580;50.106;8.702;2023-12-29T06:17:17;5.10;;;3.70;;
11054;SDS011;5580;50.106;8.702;2023-12-29T06:19:43;6.03;;;3.50;;
11054;SDS011;5580;50.106;8.702;2023-12-29T06:22:09;6.00;;;3.83;;
11054;SDS011;5580;50.106;8.702;2023-12-29T06:24:36;5.43;;;3.53;;
11054;SDS011;5580;50.106;8.702;2023-12-29T06:27:02;5.00;;;3.80;;
11054;SDS011;5580;50.106;8.702;2023-12-29T06:29:28;6.23;;;3.80;;
11054;SDS011;5580;50.106;8.702;2023-12-29T06:31:54;8.13;;;3.77;;
11054;SDS011;5580;50.106;8.702;2023-12-29T06:34:19;6.40;;;3.67;;
11054;SDS011;5580;50.106;8.702;2023-12-29T06:36:45;5.97;;;3.80;;
11054;SDS011;5580;50.106;8.702;2023-12-29T06:39:11;5.00;;;3.50;;
11054;SDS011;5580;50.106;8.702;2023-12-29T06:41:36;7.97;;;3.73;;
11054;SDS011;5580;50.106;8.702;2023-12-29T06:44:02;5.13;;;3.50;;
11054;SDS011;5580;50.106;8.702;2023-12-29T06:46:28;5.40;;;3.30;;
11054;SDS011;5580;50.106;8.702;2023-12-29T06:48:53;6.10;;;3.60;;
11054;SDS011;5580;50.106;8.702;2023-12-29T06:51:19;6.43;;;4.00;;
11054;SDS011;5580;50.106;8.702;2023-12-29T06:53:47;6.17;;;3.80;;
11054;SDS011;5580;50.106;8.702;2023-12-29T06:56:13;5.20;;;3.57;;
11054;SDS011;5580;50.106;8.702;2023-12-29T06:58:40;4.53;;;3.60;;
11054;SDS011;5580;50.106;8.702;2023-12-29T07:01:05;8.27;;;3.90;;
11054;SDS011;5580;50.106;8.702;2023-12-29T07:03:31;7.50;;;3.93;;
11054;SDS011;5580;50.106;8.702;2023-12-29T07:05:56;5.60;;;3.60;;
11054;SDS011;5580;50.106;8.702;2023-12-29T07:08:25;5.90;;;3.47;;
11054;SDS011;5580;50.106;8.702;2023-12-29T07:10:51;5.60;;;3.70;;
11054;SDS011;5580;50.106;8.702;2023-12-29T07:13:17;5.87;;;3.73;;
11054;SDS011;5580;50.106;8.702;2023-12-29T07:15:42;4.63;;;3.63;;
11054;SDS011;5580;50.106;8.702;2023-12-29T07:18:08;5.00;;;3.60;;
11054;SDS011;5580;50.106;8.702;2023-12-29T07:20:33;5.60;;;3.57;;
11054;SDS011;5580;50.106;8.702;2023-12-29T07:22:59;5.07;;;3.80;;
11054;SDS011;5580;50.106;8.702;2023-12-29T07:25:25;6.07;;;4.00;;
11054;SDS011;5580;50.106;8.702;2023-12-29T07:27:51;7.13;;;4.20;;
11054;SDS011;5580;50.106;8.702;2023-12-29T07:30:18;5.90;;;3.80;;
11054;SDS011;5580;50.106;8.702;2023-12-29T07:32:43;6.00;;;4.03;;
11054;SDS011;5580;50.106;8.702;2023-12-29T07:35:09;5.27;;;3.80;;
11054;SDS011;5580;50.106;8.702;2023-12-29T07:37:35;5.60;;;3.70;;
11054;SDS011;5580;50.106;8.702;2023-12-29T07:40:00;5.57;;;3.93;;
11054;SDS011;5580;50.106;8.702;2023-12-29T07:42:26;7.40;;;3.77;;
11054;SDS011;5580;50.106;8.702;2023-12-29T07:44:52;5.23;;;4.00;;
11054;SDS011;5580;50.106;8.702;2023-12-29T07:47:20;5.43;;;3.90;;
11054;SDS011;5580;50.106;8.702;2023-12-29T07:49:45;6.33;;;3.83;;
11054;SDS011;5580;50.106;8.702;2023-12-29T07:52:11;5.70;;;3.90;;
11054;SDS011;5580;50.106;8.702;2023-12-29T07:54:37;4.70;;;3.67;;
11054;SDS011;5580;50.106;8.702;2023-12-29T07:57:02;5.47;;;3.53;;
11054;SDS011;5580;50.106;8.702;2023-12-29T07:59:28;6.60;;;3.93;;
11054;SDS011;5580;50.106;8.702;2023-12-29T08:01:53;5.23;;;4.00;;
11054;SDS011;5580;50.106;8.702;2023-12-29T08:04:19;5.03;;;3.53;;
11054;SDS011;5580;50.106;8.702;2023-12-29T08:06:44;5.00;;;3.70;;
11054;SDS011;5580;50.106;8.702;2023-12-29T08:09:10;6.83;;;3.50;;
11054;SDS011;5580;50.106;8.702;2023-12-29T08:11:35;5.87;;;3.87;;
11054;SDS011;5580;50.106;8.702;2023-12-29T08:14:01;5.83;;;3.43;;
11054;SDS011;5580;50.106;8.702;2023-12-29T08:16:27;5.73;;;3.70;;
11054;SDS011;5580;50.106;8.702;2023-12-29T08:18:52;7.00;;;3.87;;
11054;SDS011;5580;50.106;8.702;2023-12-29T08:21:21;4.73;;;3.60;;
11054;SDS011;5580;50.106;8.702;2023-12-29T08:23:47;5.03;;;3.60;;
11054;SDS011;5580;50.106;8.702;2023-12-29T08:26:13;7.57;;;3.43;;
11054;SDS011;5580;50.106;8.702;2023-12-29T08:28:39;6.17;;;3.63;;
11054;SDS011;5580;50.106;8.702;2023-12-29T08:31:06;4.53;;;3.30;;
11054;SDS011;5580;50.106;8.702;2023-12-29T08:33:32;4.40;;;3.30;;
11054;SDS011;5580;50.106;8.702;2023-12-29T08:35:57;6.57;;;3.40;;
11054;SDS011;5580;50.106;8.702;2023-12-29T08:38:26;6.67;;;3.47;;
11054;SDS011;5580;50.106;8.702;2023-12-29T08:40:52;5.03;;;3.50;;
11054;SDS011;5580;50.106;8.702;2023-12-29T08:43:18;6.67;;;3.27;;
11054;SDS011;5580;50.106;8.702;2023-12-29T08:45:46;7.13;;;3.50;;
11054;SDS011;5580;50.106;8.702;2023-12-29T08:48:12;5.30;;;3.60;;
11054;SDS011;5580;50.106;8.702;2023-12-29T08:50:38;8.33;;;3.27;;
11054;SDS011;5580;50.106;8.702;2023-12-29T08:53:03;5.17;;;3.30;;
11054;SDS011;5580;50.106;8.702;2023-12-29T08:55:29;4.07;;;3.47;;
11054;SDS011;5580;50.106;8.702;2023-12-29T08:57:56;6.80;;;3.43;;
11054;SDS011;5580;50.106;8.702;2023-12-29T09:00:22;7.57;;;3.20;;
11054;SDS011;5580;50.106;8.702;2023-12-29T09:02:48;5.60;;;3.00;;
11054;SDS011;5580;50.106;8.702;2023-12-29T09:05:13;5.83;;;3.50;;
11054;SDS011;5580;50.106;8.702;2023-12-29T09:07:39;5.47;;;3.50;;
11054;SDS011;5580;50.106;8.702;2023-12-29T09:10:05;5.50;;;3.50;;
11054;SDS011;5580;50.106;8.702;2023-12-29T09:12:35;6.30;;;2.90;;
11054;SDS011;5580;50.106;8.702;2023-12-29T09:15:01;5.13;;;3.10;;
11054;SDS011;5580;50.106;8.702;2023-12-29T09:17:27;6.10;;;3.37;;
11054;SDS011;5580;50.106;8.702;2023-12-29T09:19:53;5.07;;;2.97;;
11054;SDS011;5580;50.106;8.702;2023-12-29T09:22:19;5.77;;;3.30;;
11054;SDS011;5580;50.106;8.702;2023-12-29T09:24:45;4.63;;;3.30;;
11054;SDS011;5580;50.106;8.702;2023-12-29T09:27:11;5.70;;;3.17;;
11054;SDS011;5580;50.106;8.702;2023-12-29T09:29:36;4.30;;;3.37;;
11054;SDS011;5580;50.106;8.702;2023-12-29T09:32:02;5.70;;;3.13;;
11054;SDS011;5580;50.106;8.702;2023-12-29T09:34:28;7.20;;;3.40;;
11054;SDS011;5580;50.106;8.702;2023-12-29T09:36:54;5.50;;;3.30;;
11054;SDS011;5580;50.106;8.702;2023-12-29T09:39:19;4.43;;;3.10;;
11054;SDS011;5580;50.106;8.702;2023-12-29T09:41:50;4.87;;;2.73;;
11054;SDS011;5580;50.106;8.702;2023-12-29T09:44:16;5.73;;;3.40;;
11054;SDS011;5580;50.106;8.702;2023-12-29T09:46:48;5.90;;;3.10;;
11054;SDS011;5580;50.106;8.702;2023-12-29T09:49:16;6.70;;;3.00;;
11054;SDS011;5580;50.106;8.702;2023-12-29T09:51:44;3.80;;;2.60;;
11054;SDS011;5580;50.106;8.702;2023-12-29T09:54:10;5.97;;;3.23;;
11054;SDS011;5580;50.106;8.702;2023-12-29T09:56:36;4.03;;;2.77;;
11054;SDS011;5580;50.106;8.702;2023-12-29T09:59:03;5.43;;;3.13;;
11054;SDS011;5580;50.106;8.702;2023-12-29T10:01:29;5.50;;;2.93;;
11054;SDS011;5580;50.106;8.702;2023-12-29T10:03:55;6.60;;;3.00;;
11054;SDS011;5580;50.106;8.702;2023-12-29T10:06:23;4.63;;;2.83;;
11054;SDS011;5580;50.106;8.702;2023-12-29T10:08:49;5.73;;;3.13;;
11054;SDS011;5580;50.106;8.702;2023-12-29T10:11:16;4.13;;;2.90;;
11054;SDS011;5580;50.106;8.702;2023-12-29T10:13:46;7.20;;;3.27;;
11054;SDS011;5580;50.106;8.702;2023-12-29T10:16:24;5.60;;;3.00;;
11054;SDS011;5580;50.106;8.702;2023-12-29T10:21:52;4.80;;;3.00;;
11054;SDS011;5580;50.106;8.702;2023-12-29T10:24:27;6.40;;;2.83;;
11054;SDS011;5580;50.106;8.702;2023-12-29T10:26:53;5.00;;;2.77;;
11054;SDS011;5580;50.106;8.702;2023-12-29T10:29:20;7.47;;;3.20;;
11054;SDS011;5580;50.106;8.702;2023-12-29T10:31:46;7.27;;;3.57;;
11054;SDS011;5580;50.106;8.702;2023-12-29T10:34:19;5.17;;;3.10;;
11054;SDS011;5580;50.106;8.702;2023-12-29T10:36:49;5.13;;;2.93;;
11054;SDS011;5580;50.106;8.702;2023-12-29T10:39:15;5.77;;;3.40;;
11054;SDS011;5580;50.106;8.702;2023-12-29T10:41:41;7.40;;;3.30;;
11054;SDS011;5580;50.106;8.702;2023-12-29T10:44:07;5.03;;;2.90;;
11054;SDS011;5580;50.106;8.702;2023-12-29T10:46:33;4.10;;;2.73;;
11054;SDS011;5580;50.106;8.702;2023-12-29T10:49:12;6.83;;;3.20;;
11054;SDS011;5580;50.106;8.702;2023-12-29T10:51:38;5.10;;;3.23;;
11054;SDS011;5580;50.106;8.702;2023-12-29T10:54:05;3.80;;;2.73;;
11054;SDS011;5580;50.106;8.702;2023-12-29T10:56:31;3.97;;;3.00;;
11054;SDS011;5580;50.106;8.702;2023-12-29T10:58:59;5.13;;;3.03;;
11054;SDS011;5580;50.106;8.702;2023-12-29T11:01:25;4.47;;;2.90;;
11054;SDS011;5580;50.106;8.702;2023-12-29T11:03:58;6.83;;;3.20;;
11054;SDS011;5580;50.106;8.702;2023-12-29T11:06:25;4.30;;;2.90;;
11054;SDS011;5580;50.106;8.702;2023-12-29T11:08:52;3.40;;;2.87;;
11054;SDS011;5580;50.106;8.702;2023-12-29T11:11:18;4.17;;;2.70;;
11054;SDS011;5580;50.106;8.702;2023-12-29T11:13:45;5.73;;;3.23;;
11054;SDS011;5580;50.106;8.702;2023-12-29T11:16:12;5.33;;;3.07;;
11054;SDS011;5580;50.106;8.702;2023-12-29T11:18:38;3.63;;;2.93;;
11054;SDS011;5580;50.106;8.702;2023-12-29T11:21:07;5.70;;;3.10;;
11054;SDS011;5580;50.106;8.702;2023-12-29T11:23:34;3.43;;;3.13;;
11054;SDS011;5580;50.106;8.702;2023-12-29T11:25:59;4.97;;;3.00;;
11054;SDS011;5580;50.106;8.702;2023-12-29T11:28:25;6.23;;;3.30;;
11054;SDS011;5580;50.106;8.702;2023-12-29T11:30:51;4.63;;;3.10;;
11054;SDS011;5580;50.106;8.702;2023-12-29T11:33:21;3.67;;;2.87;;
11054;SDS011;5580;50.106;8.702;2023-12-29T11:35:56;4.70;;;2.70;;
11054;SDS011;5580;50.106;8.702;2023-12-29T11:41:11;4.50;;;3.00;;
11054;SDS011;5580;50.106;8.702;2023-12-29T11:43:38;5.40;;;2.67;;
11054;SDS011;5580;50.106;8.702;2023-12-29T11:46:04;4.73;;;2.87;;
11054;SDS011;5580;50.106;8.702;2023-12-29T11:51:31;4.57;;;2.60;;
11054;SDS011;5580;50.106;8.702;2023-12-29T11:54:02;5.43;;;2.87;;
11054;SDS011;5580;50.106;8.702;2023-12-29T11:56:33;4.63;;;2.50;;
11054;SDS011;5580;50.106;8.702;2023-12-29T12:01:38;7.20;;;3.10;;
11054;SDS011;5580;50.106;8.702;2023-12-29T12:04:05;4.73;;;3.40;;
11054;SDS011;5580;50.106;8.702;2023-12-29T12:07:07;7.17;;;3.10;;
11054;SDS011;5580;50.106;8.702;2023-12-29T12:12:46;5.00;;;3.20;;
11054;SDS011;5580;50.106;8.702;2023-12-29T12:17:58;6.00;;;3.30;;
11054;SDS011;5580;50.106;8.702;2023-12-29T12:20:25;7.50;;;3.53;;
11054;SDS011;5580;50.106;8.702;2023-12-29T12:22:57;3.70;;;3.13;;
11054;SDS011;5580;50.106;8.702;2023-12-29T12:25:26;5.07;;;2.87;;
11054;SDS011;5580;50.106;8.702;2023-12-29T12:27:56;4.63;;;2.80;;
11054;SDS011;5580;50.106;8.702;2023-12-29T12:30:22;6.33;;;3.10;;
11054;SDS011;5580;50.106;8.702;2023-12-29T12:32:57;5.37;;;3.10;;
11054;SDS011;5580;50.106;8.702;2023-12-29T12:35:23;4.60;;;3.10;;
11054;SDS011;5580;50.106;8.702;2023-12-29T12:38:02;5.57;;;2.77;;
11054;SDS011;5580;50.106;8.702;2023-12-29T12:40:35;4.87;;;2.53;;
11054;SDS011;5580;50.106;8.702;2023-12-29T12:43:01;6.87;;;2.90;;
11054;SDS011;5580;50.106;8.702;2023-12-29T12:45:28;4.33;;;2.70;;
11054;SDS011;5580;50.106;8.702;2023-12-29T12:48:33;6.10;;;3.13;;
11054;SDS011;5580;50.106;8.702;2023-12-29T12:51:20;4.77;;;2.67;;
11054;SDS011;5580;50.106;8.702;2023-12-29T12:53:47;3.77;;;2.80;;
11054;SDS011;5580;50.106;8.702;2023-12-29T12:56:14;4.43;;;2.70;;
11054;SDS011;5580;50.106;8.702;2023-12-29T12:58:41;4.20;;;2.83;;
11054;SDS011;5580;50.106;8.702;2023-12-29T13:01:07;3.73;;;2.67;;
11054;SDS011;5580;50.106;8.702;2023-12-29T13:03:33;5.13;;;2.40;;
11054;SDS011;5580;50.106;8.702;2023-12-29T13:06:01;4.70;;;2.77;;
11054;SDS011;5580;50.106;8.702;2023-12-29T13:08:29;4.07;;;2.73;;
11054;SDS011;5580;50.106;8.702;2023-12-29T13:10:55;4.27;;;2.17;;
11054;SDS011;5580;50.106;8.702;2023-12-29T13:13:21;4.40;;;2.60;;
11054;SDS011;5580;50.106;8.702;2023-12-29T13:15:48;4.53;;;2.50;;
11054;SDS011;5580;50.106;8.702;2023-12-29T13:18:14;2.40;;;2.20;;
11054;SDS011;5580;50.106;8.702;2023-12-29T13:20:46;7.43;;;2.30;;
11054;SDS011;5580;50.106;8.702;2023-12-29T13:23:13;7.27;;;2.43;;
11054;SDS011;5580;50.106;8.702;2023-12-29T13:25:39;4.87;;;2.40;;
11054;SDS011;5580;50.106;8.702;2023-12-29T13:28:08;5.00;;;2.60;;
11054;SDS011;5580;50.106;8.702;2023-12-29T13:30:34;3.93;;;2.20;;
11054;SDS011;5580;50.106;8.702;2023-12-29T13:33:08;5.00;;;1.97;;
11054;SDS011;5580;50.106;8.702;2023-12-29T13:36:06;3.00;;;2.03;;
11054;SDS011;5580;50.106;8.702;2023-12-29T13:38:36;2.00;;;1.80;;
11054;SDS011;5580;50.106;8.702;2023-12-29T13:41:11;2.90;;;1.80;;
11054;SDS011;5580;50.106;8.702;2023-12-29T13:43:38;6.27;;;2.40;;
11054;SDS011;5580;50.106;8.702;2023-12-29T13:46:07;3.27;;;1.97;;
11054;SDS011;5580;50.106;8.702;2023-12-29T13:48:34;2.27;;;1.83;;
11054;SDS011;5580;50.106;8.702;2023-12-29T13:51:00;3.50;;;1.97;;
11054;SDS011;5580;50.106;8.702;2023-12-29T13:53:26;4.90;;;2.07;;
11054;SDS011;5580;50.106;8.702;2023-12-29T13:55:51;3.80;;;2.30;;
11054;SDS011;5580;50.106;8.702;2023-12-29T13:58:17;2.23;;;1.90;;
11054;SDS011;5580;50.106;8.702;2023-12-29T14:00:43;3.20;;;2.50;;
11054;SDS011;5580;50.106;8.702;2023-12-29T14:03:15;3.27;;;1.83;;
11054;SDS011;5580;50.106;8.702;2023-12-29T14:05:52;3.33;;;2.00;;
11054;SDS011;5580;50.106;8.702;2023-12-29T14:08:54;2.27;;;2.10;;
11054;SDS011;5580;50.106;8.702;2023-12-29T14:11:13;2.17;;;1.67;;
11054;SDS011;5580;50.106;8.702;2023-12-29T14:13:42;2.97;;;2.00;;
11054;SDS011;5580;50.106;8.702;2023-12-29T14:16:09;2.07;;;1.93;;
11054;SDS011;5580;50.106;8.702;2023-12-29T14:21:26;2.80;;;1.83;;
11054;SDS011;5580;50.106;8.702;2023-12-29T14:23:59;3.37;;;2.00;;
11054;SDS011;5580;50.106;8.702;2023-12-29T14:26:31;2.57;;;1.70;;
11054;SDS011;5580;50.106;8.702;2023-12-29T14:29:15;2.27;;;1.67;;
11054;SDS011;5580;50.106;8.702;2023-12-29T14:31:41;2.53;;;1.50;;
11054;SDS011;5580;50.106;8.702;2023-12-29T14:34:08;3.20;;;1.63;;
11054;SDS011;5580;50.106;8.702;2023-12-29T14:36:35;3.47;;;1.40;;
11054;SDS011;5580;50.106;8.702;2023-12-29T14:39:02;1.20;;;1.03;;
11054;SDS011;5580;50.106;8.702;2023-12-29T14:41:29;1.77;;;1.67;;
11054;SDS011;5580;50.106;8.702;2023-12-29T14:43:55;1.70;;;1.60;;
11054;SDS011;5580;50.106;8.702;2023-12-29T14:46:21;4.40;;;1.83;;
11054;SDS011;5580;50.106;8.702;2023-12-29T14:48:47;4.47;;;2.10;;
11054;SDS011;5580;50.106;8.702;2023-12-29T14:51:13;2.27;;;1.93;;
11054;SDS011;5580;50.106;8.702;2023-12-29T14:53:39;4.63;;;2.00;;
11054;SDS011;5580;50.106;8.702;2023-12-29T14:56:05;2.50;;;2.17;;
11054;SDS011;5580;50.106;8.702;2023-12-29T14:58:31;3.87;;;1.63;;
11054;SDS011;5580;50.106;8.702;2023-12-29T15:00:57;1.90;;;1.80;;
11054;SDS011;5580;50.106;8.702;2023-12-29T15:03:23;3.30;;;2.00;;
11054;SDS011;5580;50.106;8.702;2023-12-29T15:05:49;3.23;;;2.20;;
11054;SDS011;5580;50.106;8.702;2023-12-29T15:08:15;2.47;;;2.27;;
11054;SDS011;5580;50.106;8.702;2023-12-29T15:10:42;2.87;;;2.23;;
11054;SDS011;5580;50.106;8.702;2023-12-29T15:13:09;3.07;;;2.03;;
11054;SDS011;5580;50.106;8.702;2023-12-29T15:15:35;3.77;;;2.60;;
11054;SDS011;5580;50.106;8.702;2023-12-29T15:18:00;2.43;;;2.03;;
11054;SDS011;5580;50.106;8.702;2023-12-29T15:20:27;2.70;;;2.20;;
11054;SDS011;5580;50.106;8.702;2023-12-29T15:22:53;2.93;;;2.27;;
11054;SDS011;5580;50.106;8.702;2023-12-29T15:25:20;3.90;;;2.30;;